Batesburg, South Carolina
Current Conditions -  °F | °C
As of 6:15 AM on Friday 28 Nov 2014 (Local Time) from KAIK Reporting Station
Clear Clear  
Wind Chill: 32°   Ceiling: Unl
Heat Index: 32°   Visibility: 10mi
Dew Point: 27°   Wind: 3mph
Humidity: 80%   Direction: 10°N
Pressure: 30.38"   Gusts: NA
Location:  33.91°N, 81.55°W
Report Text: KAIK 281115Z AUTO 01003KT 10SM CLR 00/M03 A3038 RMK AO2 PNO
Loading
Personal Weather Stations






























Interactive Weather Map New forecast layout! Learn more

10-Day Weather Forecast

Advertisements
Track Severe Weather on mobile